Time;durP1;ratioP1;P1;durP2;ratioP2;P2;SDS_P1;SDS_P2;PMS_P1;PMS_P2;Temp;Humidity;BMP_temperature;BMP_pressure;BME280_temperature;BME280_humidity;BME280_pressure;Samples;Min_cycle;Max_cycle;Signal;HPM_P1;HPM_P2
2022/09/19 00:01:35;;;;;;;2.70;1.53;;;12.70;99.90;;;;;;4993848;28;20181;-70
2022/09/19 00:04:04;;;;;;;1.60;1.07;;;12.70;99.90;;;;;;4992144;28;20428;-70
2022/09/19 00:06:35;;;;;;;1.50;1.10;;;12.60;99.90;;;;;;4997657;28;20485;-69
2022/09/19 00:09:02;;;;;;;3.73;1.30;;;12.50;99.90;;;;;;4994729;28;20452;-70
2022/09/19 00:11:27;;;;;;;2.73;1.30;;;12.40;99.90;;;;;;4994970;28;20524;-70
2022/09/19 00:13:55;;;;;;;4.10;1.40;;;12.30;99.90;;;;;;4994255;28;20507;-70
2022/09/19 00:16:33;;;;;;;1.50;1.00;;;12.30;99.90;;;;;;4992073;28;20204;-70
2022/09/19 00:19:00;;;;;;;1.70;1.27;;;12.20;99.90;;;;;;4993790;28;20458;-69
2022/09/19 00:21:32;;;;;;;2.07;1.30;;;12.20;99.90;;;;;;4994171;28;20439;-70
2022/09/19 00:26:45;;;;;;;2.40;1.40;;;12.10;99.90;;;;;;4992272;28;20455;-69
2022/09/19 00:29:10;;;;;;;2.03;1.20;;;11.90;99.90;;;;;;4991183;28;20490;-68
2022/09/19 00:31:36;;;;;;;1.90;1.30;;;12.00;99.90;;;;;;4996004;28;20808;-68
2022/09/19 00:34:06;;;;;;;1.80;1.00;;;12.00;99.90;;;;;;4978858;28;20685;-69
2022/09/19 00:36:33;;;;;;;2.33;1.20;;;12.00;99.90;;;;;;4993063;28;20242;-69
2022/09/19 00:38:59;;;;;;;2.00;1.23;;;12.00;99.90;;;;;;4996712;28;20443;-69
2022/09/19 00:41:26;;;;;;;3.07;1.40;;;11.90;99.90;;;;;;4996249;28;20428;-69
2022/09/19 00:43:59;;;;;;;2.87;1.30;;;11.90;99.90;;;;;;4991695;28;20451;-70
2022/09/19 00:46:27;;;;;;;2.90;1.30;;;11.90;99.90;;;;;;4992167;28;20497;-69
2022/09/19 00:48:56;;;;;;;4.70;1.20;;;11.90;99.90;;;;;;4996045;28;20501;-70
2022/09/19 00:51:36;;;;;;;2.13;1.30;;;12.00;99.90;;;;;;4994402;28;20447;-70
2022/09/19 00:54:07;;;;;;;3.63;1.50;;;12.00;99.90;;;;;;4993309;28;20982;-69
2022/09/19 00:56:34;;;;;;;2.00;1.17;;;12.00;99.90;;;;;;4992304;28;20439;-69
2022/09/19 00:59:01;;;;;;;3.13;1.27;;;12.00;99.90;;;;;;4993737;28;20451;-69
2022/09/19 01:01:28;;;;;;;4.40;1.30;;;11.80;99.90;;;;;;4991879;28;21074;-69
2022/09/19 01:03:55;;;;;;;1.97;1.30;;;11.80;99.90;;;;;;4997138;28;20428;-70
2022/09/19 01:06:39;;;;;;;2.17;1.40;;;11.70;99.90;;;;;;4992026;28;20496;-69
2022/09/19 01:09:42;;;;;;;1.70;1.20;;;11.70;99.90;;;;;;4994789;28;20441;-68
2022/09/19 01:12:23;;;;;;;2.23;1.50;;;11.70;99.90;;;;;;4993144;28;20495;-68
2022/09/19 01:15:20;;;;;;;3.07;1.40;;;11.90;99.90;;;;;;4993748;28;21116;-68
2022/09/19 01:17:48;;;;;;;3.43;1.37;;;11.80;99.90;;;;;;4994019;28;20465;-68
2022/09/19 01:20:20;;;;;;;1.53;1.10;;;11.80;99.90;;;;;;4996296;28;20846;-69
2022/09/19 01:23:07;;;;;;;1.90;1.27;;;11.80;99.90;;;;;;4990079;28;20533;-69
2022/09/19 01:25:43;;;;;;;1.47;1.00;;;11.80;99.90;;;;;;4994144;28;20482;-69
2022/09/19 01:28:27;;;;;;;1.70;1.30;;;11.70;99.90;;;;;;4995318;28;20863;-69
2022/09/19 01:31:16;;;;;;;3.37;1.37;;;11.70;99.90;;;;;;4994528;28;20483;-68
2022/09/19 01:33:40;;;;;;;2.40;1.40;;;11.60;99.90;;;;;;4994194;28;21374;-68
2022/09/19 01:36:09;;;;;;;3.23;1.40;;;11.50;99.90;;;;;;4993775;28;20518;-69
2022/09/19 01:38:38;;;;;;;2.43;1.30;;;11.50;99.90;;;;;;4991828;28;20599;-68
2022/09/19 01:41:07;;;;;;;2.17;1.10;;;11.50;99.90;;;;;;4992715;28;20433;-69
2022/09/19 01:43:33;;;;;;;1.77;1.30;;;11.50;99.90;;;;;;4995489;28;20441;-68
2022/09/19 01:46:07;;;;;;;1.60;1.20;;;11.50;99.90;;;;;;4991253;28;20483;-70
2022/09/19 01:48:51;;;;;;;2.10;1.33;;;11.60;99.90;;;;;;4996756;28;20196;-69
2022/09/19 01:51:31;;;;;;;2.33;1.50;;;11.60;99.90;;;;;;4995969;28;20443;-70
2022/09/19 01:54:24;;;;;;;1.80;1.20;;;11.60;99.90;;;;;;5002784;28;20882;-68
2022/09/19 01:57:16;;;;;;;2.10;1.50;;;11.60;99.90;;;;;;4999379;28;20432;-69
2022/09/19 02:00:11;;;;;;;3.30;1.10;;;11.60;99.90;;;;;;5000830;28;20797;-69
2022/09/19 02:02:49;;;;;;;2.40;1.57;;;11.60;99.90;;;;;;4998831;28;20419;-69
2022/09/19 02:05:32;;;;;;;3.50;1.47;;;11.60;99.90;;;;;;4997808;28;20456;-70
2022/09/19 02:08:23;;;;;;;1.70;1.20;;;11.60;99.90;;;;;;4997583;28;20458;-69
2022/09/19 02:11:04;;;;;;;1.83;1.30;;;11.60;99.90;;;;;;5002496;28;20428;-69
2022/09/19 02:13:33;;;;;;;2.80;1.23;;;11.60;99.90;;;;;;4999315;28;20877;-69
2022/09/19 02:16:18;;;;;;;2.27;1.40;;;11.50;99.90;;;;;;4997797;28;20450;-69
2022/09/19 02:18:49;;;;;;;2.90;1.50;;;11.50;99.90;;;;;;4997097;28;20439;-69
2022/09/19 02:21:20;;;;;;;2.57;1.30;;;11.40;99.90;;;;;;4997319;28;20526;-69
2022/09/19 02:23:49;;;;;;;1.70;1.30;;;11.40;99.90;;;;;;4994522;28;20974;-69
2022/09/19 02:26:19;;;;;;;2.10;1.30;;;11.40;99.90;;;;;;5001122;28;20448;-69
2022/09/19 02:28:49;;;;;;;1.70;1.20;;;11.30;99.90;;;;;;4996868;28;20440;-69
2022/09/19 02:31:14;;;;;;;2.47;1.43;;;11.30;99.90;;;;;;4997869;28;20469;-71
2022/09/19 02:33:44;;;;;;;2.07;1.50;;;11.30;99.90;;;;;;4998158;28;20541;-70
2022/09/19 02:36:26;;;;;;;2.10;1.40;;;11.30;99.90;;;;;;4998114;28;20198;-70
2022/09/19 02:38:58;;;;;;;2.10;1.30;;;11.30;99.90;;;;;;4999640;28;20515;-70
2022/09/19 02:41:30;;;;;;;2.13;1.63;;;11.30;99.90;;;;;;4997687;28;20914;-70
2022/09/19 02:44:19;;;;;;;1.90;1.40;;;11.30;99.90;;;;;;4997650;28;20479;-70
2022/09/19 02:46:57;;;;;;;2.47;1.57;;;11.40;99.90;;;;;;4995319;28;20502;-69
2022/09/19 02:49:46;;;;;;;2.23;1.30;;;11.30;99.90;;;;;;4999754;28;20424;-69
2022/09/19 02:52:17;;;;;;;2.77;1.73;;;11.30;99.90;;;;;;5000761;28;20539;-70
2022/09/19 02:54:49;;;;;;;2.43;1.37;;;11.30;99.90;;;;;;4999121;28;20463;-70
2022/09/19 02:57:17;;;;;;;2.53;1.33;;;11.30;99.90;;;;;;4998305;28;20808;-70
2022/09/19 02:59:47;;;;;;;2.70;1.47;;;11.30;99.90;;;;;;4999377;28;20507;-69
2022/09/19 03:02:24;;;;;;;3.40;1.60;;;11.20;99.90;;;;;;4997510;28;20436;-70
2022/09/19 03:05:01;;;;;;;1.70;1.33;;;11.20;99.90;;;;;;4998902;28;20443;-68
2022/09/19 03:07:32;;;;;;;4.47;2.13;;;11.20;99.90;;;;;;4997183;28;20439;-68
2022/09/19 03:10:12;;;;;;;2.93;1.67;;;11.20;99.90;;;;;;4998393;28;20498;-68
2022/09/19 03:12:53;;;;;;;2.83;1.60;;;11.20;99.90;;;;;;4995735;28;20435;-69
2022/09/19 03:15:47;;;;;;;1.90;1.57;;;11.20;99.90;;;;;;4995512;28;20518;-68
2022/09/19 03:18:17;;;;;;;1.80;1.40;;;11.20;99.90;;;;;;4988401;28;20436;-68
2022/09/19 03:20:49;;;;;;;1.90;1.60;;;11.20;99.90;;;;;;4996544;28;20431;-70
2022/09/19 03:23:21;;;;;;;3.10;1.60;;;11.20;99.90;;;;;;4997408;28;20854;-68
2022/09/19 03:25:47;;;;;;;2.10;1.73;;;11.10;99.90;;;;;;4996717;28;20452;-69
2022/09/19 03:28:17;;;;;;;2.50;1.70;;;11.10;99.90;;;;;;4992985;28;20518;-69
2022/09/19 03:30:42;;;;;;;4.67;1.87;;;11.00;99.90;;;;;;4980853;28;20208;-69
2022/09/19 03:33:08;;;;;;;3.30;1.73;;;11.00;99.90;;;;;;4994509;28;20461;-69
2022/09/19 03:35:36;;;;;;;6.23;1.90;;;11.00;99.90;;;;;;4982144;28;20213;-69
2022/09/19 03:38:01;;;;;;;2.60;1.63;;;10.90;99.90;;;;;;4997566;28;20531;-69
2022/09/19 03:40:27;;;;;;;3.70;1.63;;;10.90;99.90;;;;;;4980117;28;20515;-70
2022/09/19 03:42:52;;;;;;;5.63;1.47;;;11.00;99.90;;;;;;4992007;28;20193;-70
2022/09/19 03:45:18;;;;;;;3.47;1.80;;;11.10;99.90;;;;;;4995852;28;20209;-70
2022/09/19 03:47:44;;;;;;;3.30;2.07;;;11.10;99.90;;;;;;4993506;28;20185;-69
2022/09/19 03:50:09;;;;;;;2.67;1.73;;;11.20;99.90;;;;;;4993208;28;20204;-69
2022/09/19 03:52:35;;;;;;;3.00;1.60;;;11.20;99.90;;;;;;4995733;28;20694;-69
2022/09/19 03:55:00;;;;;;;3.13;1.47;;;11.20;99.90;;;;;;4994919;28;21050;-69
2022/09/19 03:57:26;;;;;;;6.70;1.77;;;11.30;99.90;;;;;;4999825;28;20177;-70
2022/09/19 03:59:51;;;;;;;6.33;2.03;;;11.20;99.90;;;;;;4996742;28;20233;-70
2022/09/19 04:02:17;;;;;;;3.67;1.70;;;11.10;99.90;;;;;;4997540;28;20925;-70
2022/09/19 04:04:42;;;;;;;2.40;1.57;;;11.10;99.90;;;;;;4999154;28;20831;-70
2022/09/19 04:07:08;;;;;;;6.30;1.80;;;11.00;99.90;;;;;;4997167;28;20213;-70
2022/09/19 04:09:34;;;;;;;2.47;2.00;;;11.00;99.90;;;;;;4997704;28;20193;-70
2022/09/19 04:12:02;;;;;;;6.67;1.90;;;11.00;99.90;;;;;;4995214;28;20189;-69
2022/09/19 04:14:28;;;;;;;2.70;1.70;;;11.00;99.90;;;;;;4998358;28;20220;-69
2022/09/19 04:16:55;;;;;;;6.80;2.50;;;11.00;99.90;;;;;;4996810;28;20433;-70
2022/09/19 04:19:20;;;;;;;3.63;2.07;;;11.00;99.90;;;;;;4996332;28;20547;-69
2022/09/19 04:21:46;;;;;;;3.50;1.70;;;10.90;99.90;;;;;;4994768;28;20447;-69
2022/09/19 04:24:13;;;;;;;4.63;2.23;;;10.90;99.90;;;;;;4996688;28;20189;-70
2022/09/19 04:26:43;;;;;;;3.10;2.10;;;10.90;99.90;;;;;;4994238;28;20181;-69
2022/09/19 04:29:09;;;;;;;2.97;1.90;;;10.90;99.90;;;;;;4990611;28;20432;-69
2022/09/19 04:31:38;;;;;;;2.27;1.73;;;10.90;99.90;;;;;;4992910;28;20441;-68
2022/09/19 04:34:07;;;;;;;3.03;1.87;;;10.90;99.90;;;;;;4993361;28;20988;-69
2022/09/19 04:36:34;;;;;;;2.97;2.17;;;10.90;99.90;;;;;;4997412;28;20851;-68
2022/09/19 04:39:02;;;;;;;4.57;1.90;;;10.90;99.90;;;;;;4993622;28;20486;-70
2022/09/19 04:41:32;;;;;;;4.00;2.33;;;10.90;99.90;;;;;;4993480;28;20486;-70
2022/09/19 04:43:58;;;;;;;5.07;2.23;;;10.90;99.90;;;;;;4990994;28;20466;-70
2022/09/19 04:46:24;;;;;;;2.40;1.77;;;10.90;99.90;;;;;;4994529;28;20514;-69
2022/09/19 04:48:52;;;;;;;4.07;2.07;;;11.00;99.90;;;;;;4994183;28;20185;-69
2022/09/19 04:51:18;;;;;;;3.20;2.23;;;11.00;99.90;;;;;;4996520;28;20598;-69
2022/09/19 04:53:44;;;;;;;3.20;2.10;;;11.10;99.90;;;;;;4990925;28;20472;-69
2022/09/19 04:56:11;;;;;;;5.40;2.00;;;11.10;99.90;;;;;;4993318;28;20455;-70
2022/09/19 04:58:40;;;;;;;4.17;2.33;;;11.10;99.90;;;;;;4996383;28;20177;-69
2022/09/19 05:01:06;;;;;;;3.10;2.47;;;11.10;99.90;;;;;;4996190;28;20991;-69
2022/09/19 05:03:32;;;;;;;4.80;2.30;;;11.00;99.90;;;;;;4994935;28;20795;-69
2022/09/19 05:05:59;;;;;;;3.20;1.90;;;11.00;99.90;;;;;;4979448;28;20444;-69
2022/09/19 05:08:30;;;;;;;4.43;2.17;;;11.00;99.90;;;;;;4997130;28;20185;-70
2022/09/19 05:10:58;;;;;;;5.93;2.40;;;11.00;99.90;;;;;;4989130;28;20420;-68
2022/09/19 05:13:27;;;;;;;6.73;2.40;;;11.00;99.90;;;;;;4997047;28;20752;-68
2022/09/19 05:15:54;;;;;;;5.07;1.83;;;11.00;99.90;;;;;;4979410;28;20793;-70
2022/09/19 05:18:21;;;;;;;2.47;2.00;;;11.00;99.90;;;;;;4993744;28;20737;-70
2022/09/19 05:20:48;;;;;;;4.73;2.30;;;11.10;99.90;;;;;;4996326;28;20511;-71
2022/09/19 05:23:14;;;;;;;4.37;2.00;;;11.20;99.90;;;;;;4992931;28;20447;-70
2022/09/19 05:25:40;;;;;;;3.70;2.10;;;11.10;99.90;;;;;;4995354;28;20571;-69
2022/09/19 05:28:07;;;;;;;4.10;2.10;;;11.20;99.90;;;;;;4996926;28;20821;-70
2022/09/19 05:30:35;;;;;;;2.93;2.20;;;11.20;99.90;;;;;;5000132;28;20455;-70
2022/09/19 05:33:02;;;;;;;3.00;2.23;;;11.30;99.90;;;;;;4993738;28;20913;-70
2022/09/19 05:35:28;;;;;;;6.90;2.17;;;11.30;99.90;;;;;;4997118;28;20857;-69
2022/09/19 05:37:54;;;;;;;7.47;2.13;;;11.30;99.90;;;;;;4961280;28;1047054;-70
2022/09/19 05:40:20;;;;;;;2.63;2.00;;;11.30;99.90;;;;;;4998179;28;20185;-69
2022/09/19 05:42:51;;;;;;;3.70;2.10;;;11.40;99.90;;;;;;4994353;28;20572;-69
2022/09/19 05:45:17;;;;;;;4.37;1.80;;;11.40;99.90;;;;;;4996101;28;20209;-69
2022/09/19 05:47:43;;;;;;;6.67;2.30;;;11.40;99.90;;;;;;4998028;28;20490;-69
2022/09/19 05:50:11;;;;;;;4.07;1.97;;;11.40;99.90;;;;;;4997217;28;20428;-68
2022/09/19 05:55:23;;;;;;;3.10;1.93;;;11.40;99.90;;;;;;4995854;28;20470;-68
2022/09/19 05:57:51;;;;;;;2.43;1.70;;;11.50;99.90;;;;;;4994924;28;20435;-69
2022/09/19 06:00:16;;;;;;;2.63;2.43;;;11.50;99.90;;;;;;4998198;28;20478;-69
2022/09/19 06:02:42;;;;;;;3.73;1.97;;;11.60;99.90;;;;;;4997105;28;20444;-69
2022/09/19 06:05:07;;;;;;;5.00;1.80;;;11.60;99.90;;;;;;4998875;28;20263;-69
2022/09/19 06:07:33;;;;;;;11.10;2.03;;;11.50;99.90;;;;;;4998603;28;20213;-70
2022/09/19 06:10:00;;;;;;;5.10;2.27;;;11.60;99.90;;;;;;4999779;28;20199;-69
2022/09/19 06:12:26;;;;;;;4.00;2.10;;;11.60;99.90;;;;;;4995455;28;20204;-68
2022/09/19 06:14:51;;;;;;;9.17;2.00;;;11.60;99.90;;;;;;4999418;28;20491;-69
2022/09/19 06:17:17;;;;;;;6.50;2.17;;;11.60;99.90;;;;;;4999177;28;20217;-68
2022/09/19 06:19:42;;;;;;;4.60;1.93;;;11.60;99.90;;;;;;4998383;28;20725;-70
2022/09/19 06:22:08;;;;;;;2.90;1.80;;;11.60;99.90;;;;;;5000231;28;20548;-70
2022/09/19 06:24:33;;;;;;;3.73;1.90;;;11.60;99.90;;;;;;4995764;28;20204;-68
2022/09/19 06:26:59;;;;;;;5.53;2.77;;;11.60;99.90;;;;;;4993565;28;20272;-69
2022/09/19 06:29:24;;;;;;;10.37;2.37;;;11.70;99.90;;;;;;4998050;28;20299;-70
2022/09/19 06:31:50;;;;;;;3.73;2.00;;;11.80;99.90;;;;;;4997317;28;20259;-69
2022/09/19 06:34:16;;;;;;;4.47;1.77;;;11.80;99.90;;;;;;4997115;28;20664;-69
2022/09/19 06:36:44;;;;;;;4.83;2.23;;;11.80;99.90;;;;;;4995608;28;20181;-71
2022/09/19 06:39:10;;;;;;;3.83;2.20;;;11.80;99.90;;;;;;4999938;28;20201;-71
2022/09/19 06:41:36;;;;;;;2.97;1.87;;;11.80;99.90;;;;;;4997298;28;20979;-71
2022/09/19 06:44:02;;;;;;;5.40;2.10;;;11.90;99.90;;;;;;4993498;28;20201;-70
2022/09/19 06:46:29;;;;;;;3.40;1.90;;;11.90;99.90;;;;;;4994406;28;20599;-70
2022/09/19 06:48:55;;;;;;;4.47;2.10;;;12.00;99.90;;;;;;4998134;28;20439;-70
2022/09/19 06:51:20;;;;;;;7.57;2.10;;;12.00;99.90;;;;;;4981563;28;20447;-70
2022/09/19 06:53:47;;;;;;;5.40;2.00;;;12.10;99.90;;;;;;4994795;28;20918;-70
2022/09/19 06:56:13;;;;;;;4.77;1.97;;;12.10;99.90;;;;;;4994791;28;20202;-70
2022/09/19 06:58:39;;;;;;;3.07;2.33;;;12.20;99.90;;;;;;4975112;28;20440;-71
2022/09/19 07:01:04;;;;;;;3.80;2.20;;;12.20;99.90;;;;;;4994217;28;20443;-68
2022/09/19 07:03:33;;;;;;;4.50;2.17;;;12.30;99.90;;;;;;4994822;28;20190;-70
2022/09/19 07:05:59;;;;;;;4.63;2.10;;;12.30;99.90;;;;;;4998286;28;20220;-70
2022/09/19 07:08:25;;;;;;;4.93;2.57;;;12.20;99.90;;;;;;4997218;28;20856;-68
2022/09/19 07:10:51;;;;;;;5.23;2.17;;;12.30;99.90;;;;;;4995885;28;20196;-69
2022/09/19 07:13:16;;;;;;;4.13;1.93;;;12.30;99.90;;;;;;4997984;28;20444;-68
2022/09/19 07:15:42;;;;;;;3.83;2.10;;;12.40;99.90;;;;;;4997521;28;20229;-70
2022/09/19 07:18:10;;;;;;;5.93;2.50;;;12.40;99.90;;;;;;4995151;28;20607;-70
2022/09/19 07:20:36;;;;;;;4.53;2.00;;;12.50;99.90;;;;;;4994772;28;20817;-70
2022/09/19 07:23:05;;;;;;;7.00;3.60;;;12.60;99.90;;;;;;4979888;28;20791;-70
2022/09/19 07:25:32;;;;;;;7.90;2.47;;;12.60;99.90;;;;;;4993688;28;20568;-70
2022/09/19 07:28:02;;;;;;;7.33;2.60;;;12.70;99.90;;;;;;4997171;28;20538;-70
2022/09/19 07:30:28;;;;;;;5.27;2.60;;;12.70;99.90;;;;;;4992731;28;20441;-70
2022/09/19 07:32:57;;;;;;;5.50;2.20;;;12.70;99.90;;;;;;4975007;28;21025;-69
2022/09/19 07:35:33;;;;;;;3.10;1.83;;;12.60;99.90;;;;;;4992503;28;20361;-70
2022/09/19 07:37:58;;;;;;;3.67;1.90;;;12.70;99.90;;;;;;4979953;28;20528;-69
2022/09/19 07:40:24;;;;;;;7.30;2.30;;;12.70;99.90;;;;;;4997781;28;20447;-69
2022/09/19 07:42:53;;;;;;;5.00;1.83;;;12.80;99.90;;;;;;4993582;28;20564;-70
2022/09/19 07:45:19;;;;;;;7.20;2.80;;;12.80;99.90;;;;;;4992062;28;21065;-70
2022/09/19 07:47:46;;;;;;;3.47;2.07;;;12.90;99.90;;;;;;4993810;28;20547;-69
2022/09/19 07:50:16;;;;;;;4.00;2.20;;;12.80;99.90;;;;;;4996582;28;20185;-69
2022/09/19 07:52:46;;;;;;;8.27;2.47;;;12.90;99.90;;;;;;4997748;28;20436;-69
2022/09/19 07:55:12;;;;;;;3.93;2.10;;;12.90;99.90;;;;;;4998271;28;20483;-70
2022/09/19 07:57:38;;;;;;;3.30;1.83;;;12.90;99.90;;;;;;4995982;28;20466;-70
2022/09/19 08:00:05;;;;;;;3.53;1.80;;;12.90;99.90;;;;;;4993328;28;20460;-70
2022/09/19 08:02:30;;;;;;;3.00;2.30;;;12.80;99.90;;;;;;4995477;28;20186;-70
2022/09/19 08:04:56;;;;;;;7.03;2.40;;;12.80;99.90;;;;;;4992234;28;20460;-70
2022/09/19 08:07:23;;;;;;;4.13;1.77;;;12.80;99.90;;;;;;4995509;28;20236;-70
2022/09/19 08:09:48;;;;;;;5.10;2.87;;;13.00;99.90;;;;;;4979209;28;20209;-69
2022/09/19 08:12:14;;;;;;;8.30;3.83;;;12.90;99.90;;;;;;4980431;28;20868;-70
2022/09/19 08:14:39;;;;;;;6.53;2.00;;;13.00;99.90;;;;;;4995947;28;20218;-70
2022/09/19 08:17:05;;;;;;;4.90;3.10;;;13.00;99.90;;;;;;4991392;28;20185;-69
2022/09/19 08:19:31;;;;;;;7.37;2.27;;;13.00;99.90;;;;;;4992764;28;20306;-70
2022/09/19 08:21:57;;;;;;;6.80;2.70;;;13.10;99.90;;;;;;4990326;28;20193;-69
2022/09/19 08:24:24;;;;;;;3.10;1.97;;;13.10;99.90;;;;;;4996510;28;20185;-68
2022/09/19 08:26:50;;;;;;;5.80;2.20;;;13.10;99.90;;;;;;4994198;28;21127;-68
2022/09/19 08:29:15;;;;;;;5.70;2.33;;;13.20;99.90;;;;;;4994410;28;20531;-68
2022/09/19 08:31:41;;;;;;;4.30;1.90;;;13.20;99.90;;;;;;4990570;28;20993;-68
2022/09/19 08:34:08;;;;;;;4.83;2.00;;;13.30;99.90;;;;;;4995779;28;20213;-69
2022/09/19 08:36:34;;;;;;;4.47;2.80;;;13.40;99.90;;;;;;4992394;28;20836;-69
2022/09/19 08:39:00;;;;;;;6.47;2.30;;;13.50;99.90;;;;;;4992567;28;20455;-69
2022/09/19 08:41:50;;;;;;;6.37;2.27;;;13.60;99.90;;;;;;4977793;28;20854;-68
2022/09/19 08:44:29;;;;;;;3.50;2.20;;;13.60;99.90;;;;;;4994272;28;20198;-69
2022/09/19 08:47:07;;;;;;;6.77;2.57;;;13.70;99.90;;;;;;4994635;28;20455;-69
2022/09/19 08:49:36;;;;;;;5.77;2.40;;;13.80;99.90;;;;;;4994778;28;20514;-71
2022/09/19 08:52:14;;;;;;;5.70;2.37;;;13.90;99.90;;;;;;4992683;28;21226;-70
2022/09/19 08:54:46;;;;;;;5.00;2.50;;;13.80;99.90;;;;;;4995586;28;20880;-69
2022/09/19 08:57:19;;;;;;;4.97;2.63;;;13.90;99.90;;;;;;4993182;28;20436;-68
2022/09/19 08:59:49;;;;;;;4.30;2.20;;;13.80;99.90;;;;;;4993970;28;20494;-69
2022/09/19 09:02:42;;;;;;;6.50;2.53;;;13.80;99.90;;;;;;4995924;28;20452;-69
2022/09/19 09:05:14;;;;;;;7.63;2.57;;;13.80;99.90;;;;;;4994489;28;20463;-69
2022/09/19 09:07:46;;;;;;;7.40;2.97;;;13.90;99.90;;;;;;4993663;28;20447;-70
2022/09/19 09:10:39;;;;;;;6.40;2.53;;;14.10;99.90;;;;;;4994389;28;20809;-70
2022/09/19 09:13:36;;;;;;;6.10;2.70;;;14.00;99.90;;;;;;4994207;28;20456;-71
2022/09/19 09:16:30;;;;;;;4.80;2.13;;;14.10;99.90;;;;;;4991940;28;20571;-69
2022/09/19 09:19:02;;;;;;;5.17;2.37;;;14.10;99.90;;;;;;4976999;28;20989;-69
2022/09/19 09:21:39;;;;;;;8.90;2.50;;;14.10;99.90;;;;;;4996368;28;20428;-69
2022/09/19 09:24:16;;;;;;;7.07;2.97;;;14.10;99.90;;;;;;4996050;28;20530;-68
2022/09/19 09:26:44;;;;;;;4.73;2.43;;;14.10;99.90;;;;;;4992982;28;20429;-68
2022/09/19 09:29:27;;;;;;;10.37;2.50;;;14.20;99.90;;;;;;4995651;28;20848;-69
2022/09/19 09:32:01;;;;;;;5.53;2.10;;;14.40;99.90;;;;;;4992899;28;20854;-68
2022/09/19 09:34:36;;;;;;;5.97;2.30;;;14.40;99.90;;;;;;4993672;28;20472;-68
2022/09/19 09:37:14;;;;;;;8.57;2.20;;;14.40;99.90;;;;;;4990511;28;20462;-69
2022/09/19 09:40:09;;;;;;;6.13;2.40;;;14.50;99.90;;;;;;4997462;28;20522;-70
2022/09/19 09:42:39;;;;;;;5.17;2.50;;;14.50;99.90;;;;;;4996188;28;20429;-70
2022/09/19 09:45:27;;;;;;;9.53;2.77;;;14.50;99.90;;;;;;4991224;28;20441;-70
2022/09/19 09:48:24;;;;;;;4.90;2.27;;;14.40;99.90;;;;;;4989641;28;20460;-70
2022/09/19 09:51:18;;;;;;;5.40;1.90;;;14.50;99.90;;;;;;4994342;28;20444;-70
2022/09/19 09:56:14;;;;;;;5.00;3.93;;;14.70;99.90;;;;;;4992782;28;20564;-70
2022/09/19 09:57:00;;;;;;;4.60;2.50;;;14.70;99.90;;;;;;4993130;28;20440;-70
2022/09/19 10:05:36;;;;;;;3.97;2.20;;;15.00;99.90;;;;;;4995621;28;20483;-69
2022/09/19 10:08:29;;;;;;;4.23;2.37;;;15.10;99.90;;;;;;4996133;28;20450;-69
2022/09/19 10:11:11;;;;;;;6.33;2.77;;;15.00;99.90;;;;;;4999379;28;20452;-69
2022/09/19 10:13:46;;;;;;;5.83;2.40;;;15.10;99.90;;;;;;5001138;28;20431;-71
2022/09/19 10:16:17;;;;;;;8.93;2.80;;;15.20;99.90;;;;;;4999038;28;20455;-70
2022/09/19 10:18:48;;;;;;;8.03;2.30;;;15.30;99.90;;;;;;4997463;28;20747;-68
2022/09/19 10:21:14;;;;;;;6.10;2.43;;;15.30;99.90;;;;;;5000932;28;20432;-68
2022/09/19 10:23:45;;;;;;;3.93;1.90;;;15.40;99.90;;;;;;4998285;28;20442;-70
2022/09/19 10:26:16;;;;;;;5.63;3.07;;;15.50;99.90;;;;;;4997892;28;22680;-69
2022/09/19 10:28:51;;;;;;;6.13;2.70;;;15.60;99.90;;;;;;4996343;28;20467;-70
2022/09/19 10:31:34;;;;;;;12.73;2.60;;;15.60;99.90;;;;;;4997758;28;20538;-70
2022/09/19 10:34:05;;;;;;;5.63;2.63;;;15.60;99.90;;;;;;4998814;28;20856;-69
2022/09/19 10:36:34;;;;;;;5.70;2.60;;;15.70;99.90;;;;;;4996292;28;20961;-69
2022/09/19 10:39:17;;;;;;;6.17;2.40;;;15.70;99.90;;;;;;4979963;28;20452;-69
2022/09/19 10:41:46;;;;;;;5.00;2.10;;;15.70;99.90;;;;;;4975697;28;20474;-70
2022/09/19 10:44:23;;;;;;;9.40;2.80;;;15.70;99.90;;;;;;4998510;28;20888;-70
2022/09/19 10:46:54;;;;;;;6.13;2.50;;;15.60;99.90;;;;;;4996529;28;20821;-70
2022/09/19 10:49:24;;;;;;;3.73;2.10;;;15.60;99.90;;;;;;4992603;28;20475;-70
2022/09/19 10:51:52;;;;;;;9.13;2.70;;;15.80;99.90;;;;;;4995585;28;20773;-70
2022/09/19 10:54:37;;;;;;;5.20;2.20;;;15.80;99.90;;;;;;4997580;28;20495;-69
2022/09/19 10:57:04;;;;;;;4.60;2.50;;;15.90;99.90;;;;;;4995813;28;20439;-70
2022/09/19 10:59:38;;;;;;;8.60;2.57;;;15.90;99.90;;;;;;4995926;28;20800;-69
2022/09/19 11:02:17;;;;;;;8.03;3.37;;;16.10;99.90;;;;;;4995374;28;20511;-69
2022/09/19 11:04:59;;;;;;;5.60;2.50;;;16.10;99.90;;;;;;4994383;28;20764;-69
2022/09/19 11:07:28;;;;;;;6.80;3.33;;;16.20;99.90;;;;;;4995074;28;20430;-69
2022/09/19 11:09:59;;;;;;;9.90;3.73;;;16.30;99.90;;;;;;4996340;28;20451;-69
2022/09/19 11:12:26;;;;;;;6.20;2.90;;;16.30;99.90;;;;;;4997550;28;20447;-69
2022/09/19 11:14:55;;;;;;;4.57;2.37;;;16.30;99.90;;;;;;4995915;28;21242;-69
2022/09/19 11:17:39;;;;;;;4.30;2.23;;;16.30;99.90;;;;;;4998523;28;20425;-69
2022/09/19 11:20:16;;;;;;;3.00;2.07;;;16.40;99.90;;;;;;4992848;28;20437;-68
2022/09/19 11:23:14;;;;;;;4.50;2.57;;;16.50;99.90;;;;;;4993552;28;20523;-69
2022/09/19 11:26:37;;;;;;;9.27;2.20;;;16.70;99.90;;;;;;4998097;28;20460;-68
2022/09/19 11:29:23;;;;;;;4.37;2.17;;;16.80;99.90;;;;;;4913625;29;20456;-70
2022/09/19 11:32:03;;;;;;;3.23;2.40;;;16.90;99.90;;;;;;4913402;29;20535;-69
2022/09/19 11:34:56;;;;;;;9.30;2.70;;;17.00;99.90;;;;;;4968803;28;20796;-70
2022/09/19 11:37:57;;;;;;;9.20;2.70;;;17.10;99.90;;;;;;4992017;28;20626;-70
2022/09/19 11:40:47;;;;;;;4.20;2.33;;;17.10;99.90;;;;;;4997499;28;20443;-70
2022/09/19 11:43:52;;;;;;;7.30;2.60;;;17.20;99.90;;;;;;4996649;28;20432;-70
2022/09/19 11:47:02;;;;;;;4.57;2.10;;;17.20;99.90;;;;;;4992116;28;20458;-70
2022/09/19 11:50:03;;;;;;;5.93;2.90;;;17.30;99.90;;;;;;4989170;28;20447;-68
2022/09/19 11:53:13;;;;;;;6.63;2.20;;;17.50;99.90;;;;;;4991078;28;20464;-68
2022/09/19 11:56:03;;;;;;;5.70;2.73;;;17.60;99.90;;;;;;4985038;28;20483;-68
2022/09/19 11:58:48;;;;;;;5.03;2.87;;;18.20;99.90;;;;;;4994214;28;21001;-68
2022/09/19 12:01:43;;;;;;;4.00;2.63;;;18.70;99.90;;;;;;4995964;28;20440;-67
2022/09/19 12:04:45;;;;;;;3.40;2.10;;;19.00;99.90;;;;;;4996601;28;21055;-68
2022/09/19 12:07:45;;;;;;;4.43;2.10;;;19.10;99.90;;;;;;4993882;28;20435;-69
2022/09/19 12:10:33;;;;;;;4.30;2.33;;;19.00;99.90;;;;;;4995122;28;20432;-68
2022/09/19 12:13:25;;;;;;;6.77;2.90;;;19.10;99.90;;;;;;4992586;28;20432;-68
2022/09/19 12:16:01;;;;;;;5.50;2.30;;;18.90;99.90;;;;;;4992491;28;20476;-67
2022/09/19 12:19:01;;;;;;;4.80;2.70;;;18.60;99.90;;;;;;4995538;28;20443;-68
2022/09/19 12:21:52;;;;;;;8.60;2.77;;;18.70;99.90;;;;;;4988288;28;20848;-67
2022/09/19 12:27:27;;;;;;;5.33;2.60;;;18.80;99.90;;;;;;4994432;28;20435;-68
2022/09/19 12:30:08;;;;;;;4.63;3.20;;;18.80;99.90;;;;;;4991551;28;20897;-67
2022/09/19 12:32:44;;;;;;;6.00;2.10;;;19.10;99.90;;;;;;4995411;28;20802;-68
2022/09/19 12:35:36;;;;;;;2.27;1.90;;;19.30;99.90;;;;;;4993557;28;20479;-68
2022/09/19 12:38:25;;;;;;;4.13;2.10;;;19.40;99.90;;;;;;4993979;28;20502;-68
2022/09/19 12:40:59;;;;;;;7.07;2.57;;;19.40;99.90;;;;;;4994096;28;20454;-69
2022/09/19 12:43:53;;;;;;;2.40;1.97;;;19.30;99.90;;;;;;4994628;28;20435;-68
2022/09/19 12:46:54;;;;;;;6.57;2.37;;;19.70;99.90;;;;;;4992898;28;20464;-68
2022/09/19 12:49:56;;;;;;;3.70;2.03;;;20.00;99.90;;;;;;4996285;28;20525;-68
2022/09/19 12:52:34;;;;;;;8.60;2.97;;;19.70;99.90;;;;;;4993649;28;20435;-68
2022/09/19 12:55:15;;;;;;;7.13;2.73;;;19.40;99.90;;;;;;4993583;28;20753;-68
2022/09/19 12:58:05;;;;;;;5.63;2.30;;;19.60;99.90;;;;;;4993654;28;20475;-68
2022/09/19 13:00:34;;;;;;;4.50;2.53;;;20.30;99.90;;;;;;4995184;28;20424;-67
2022/09/19 13:03:07;;;;;;;5.87;2.50;;;20.20;99.90;;;;;;4994845;28;20821;-68
2022/09/19 13:05:48;;;;;;;4.27;2.23;;;19.90;99.90;;;;;;4991312;28;20460;-67
2022/09/19 13:08:36;;;;;;;3.67;2.20;;;19.70;99.90;;;;;;4992995;28;20463;-68
2022/09/19 13:11:13;;;;;;;4.97;2.33;;;19.40;99.90;;;;;;4992471;28;20808;-68
2022/09/19 13:13:58;;;;;;;4.30;2.23;;;18.90;99.90;;;;;;4991882;28;20444;-68
2022/09/19 13:16:35;;;;;;;5.20;2.33;;;18.60;99.90;;;;;;4993998;28;20498;-67
2022/09/19 13:24:41;;;;;;;3.17;2.20;;;19.80;99.90;;;;;;4993234;28;20513;-67
2022/09/19 13:27:09;;;;;;;4.83;2.80;;;19.70;99.90;;;;;;4992314;28;20443;-67
2022/09/19 13:29:35;;;;;;;6.47;2.53;;;19.50;99.90;;;;;;4992562;28;21826;-69
2022/09/19 13:32:04;;;;;;;3.30;2.43;;;18.90;99.90;;;;;;4994046;28;20438;-67
2022/09/19 13:34:39;;;;;;;2.30;2.10;;;18.70;99.90;;;;;;4992173;28;20205;-67
2022/09/19 13:37:27;;;;;;;3.97;3.00;;;18.70;99.90;;;;;;4994280;28;20533;-67
2022/09/19 13:40:15;;;;;;;3.20;1.67;;;18.50;99.90;;;;;;4990070;28;21079;-67